Time;durP1;ratioP1;P1;durP2;ratioP2;P2;SDS_P1;SDS_P2;PMS_P1;PMS_P2;Temp;Humidity;BMP_temperature;BMP_pressure;BME280_temperature;BME280_humidity;BME280_pressure;Samples;Min_cycle;Max_cycle;Signal;HPM_P1;HPM_P2
2022/02/06 00:01:45;;;;;;;4.00;3.05;;;;;;;;;;5033553;28;24414;-54
2022/02/06 00:04:11;;;;;;;2.40;2.20;;;;;;;;;;5034937;28;24423;-55
2022/02/06 00:06:36;;;;;;;2.97;2.60;;;;;;;;;;5030793;28;24965;-53
2022/02/06 00:09:02;;;;;;;3.07;2.40;;;;;;;;;;5039679;28;24447;-55
2022/02/06 00:11:27;;;;;;;4.30;2.70;;;;;;;;;;5035251;28;24416;-54
2022/02/06 00:13:52;;;;;;;3.25;2.90;;;;;;;;;;5032444;28;24415;-54
2022/02/06 00:16:17;;;;;;;3.73;2.60;;;;;;;;;;5037259;28;24412;-54
2022/02/06 00:18:44;;;;;;;3.30;2.60;;;;;;;;;;5042739;28;24493;-55
2022/02/06 00:21:13;;;;;;;3.63;2.60;;;;;;;;;;5029255;28;24416;-54
2022/02/06 00:23:39;;;;;;;3.20;2.50;;;;;;;;;;5032333;28;24531;-55
2022/02/06 00:26:11;;;;;;;3.63;2.77;;;;;;;;;;5029936;28;24491;-55
2022/02/06 00:28:45;;;;;;;3.58;2.60;;;;;;;;;;5041923;28;24422;-54
2022/02/06 00:31:33;;;;;;;3.38;2.33;;;;;;;;;;5039789;28;24973;-54
2022/02/06 00:38:06;;;;;;;3.27;2.10;;;;;;;;;;5029178;28;24511;-54
2022/02/06 00:39:17;;;;;;;4.00;2.17;;;;;;;;;;5032834;28;24457;-53
2022/02/06 00:41:42;;;;;;;3.20;2.50;;;;;;;;;;5034021;28;24477;-54
2022/02/06 00:44:08;;;;;;;2.90;2.20;;;;;;;;;;5035734;28;25048;-54
2022/02/06 00:46:36;;;;;;;2.50;2.08;;;;;;;;;;5035692;28;24961;-54
2022/02/06 00:49:10;;;;;;;9.68;4.55;;;;;;;;;;5043280;28;24507;-54
2022/02/06 00:51:57;;;;;;;8.83;4.87;;;;;;;;;;5033968;28;24529;-54
2022/02/06 00:54:22;;;;;;;2.83;2.10;;;;;;;;;;5040731;28;24883;-53
2022/02/06 00:56:47;;;;;;;2.50;1.90;;;;;;;;;;5032146;28;24424;-54
2022/02/06 00:59:13;;;;;;;2.20;1.70;;;;;;;;;;5043504;28;24447;-54
2022/02/06 01:01:41;;;;;;;2.20;2.00;;;;;;;;;;5031019;28;24418;-54
2022/02/06 01:04:06;;;;;;;2.75;2.00;;;;;;;;;;5036579;28;24438;-54
2022/02/06 01:06:32;;;;;;;4.80;2.40;;;;;;;;;;5028375;28;24453;-54
2022/02/06 01:08:57;;;;;;;3.60;2.30;;;;;;;;;;5027802;28;24837;-54
2022/02/06 01:11:22;;;;;;;4.80;2.30;;;;;;;;;;5040674;28;24821;-53
2022/02/06 01:13:57;;;;;;;2.90;2.20;;;;;;;;;;5036173;28;26492;-54
2022/02/06 01:16:30;;;;;;;3.17;2.00;;;;;;;;;;5039550;28;24411;-53
2022/02/06 01:19:08;;;;;;;3.30;2.20;;;;;;;;;;5040410;28;24469;-53
2022/02/06 01:21:59;;;;;;;2.08;1.92;;;;;;;;;;5033751;28;24412;-54
2022/02/06 01:24:39;;;;;;;3.55;2.00;;;;;;;;;;5035761;28;25050;-53
2022/02/06 01:27:15;;;;;;;3.55;2.10;;;;;;;;;;5040093;28;24510;-54
2022/02/06 01:30:01;;;;;;;2.95;1.95;;;;;;;;;;5031860;28;24816;-53
2022/02/06 01:32:36;;;;;;;2.47;2.00;;;;;;;;;;5027019;28;24962;-53
2022/02/06 01:35:10;;;;;;;3.20;1.90;;;;;;;;;;5028245;28;24559;-54
2022/02/06 01:37:49;;;;;;;2.38;2.10;;;;;;;;;;5035848;28;24419;-54
2022/02/06 01:40:39;;;;;;;3.88;2.08;;;;;;;;;;5038407;28;24515;-54
2022/02/06 01:43:10;;;;;;;3.72;2.40;;;;;;;;;;5030814;28;24522;-54
2022/02/06 02:09:47;;;;;;;3.53;2.30;;;;;;;;;;5035665;28;24530;-54
2022/02/06 02:12:22;;;;;;;3.33;2.30;;;;;;;;;;5028243;28;24396;-54
2022/02/06 02:20:47;;;;;;;3.63;2.55;;;;;;;;;;5038216;28;25036;-54
2022/02/06 02:23:30;;;;;;;2.88;2.30;;;;;;;;;;5043236;28;24493;-54
2022/02/06 02:26:28;;;;;;;2.83;2.20;;;;;;;;;;5039530;28;24453;-54
2022/02/06 02:32:27;;;;;;;3.40;2.70;;;;;;;;;;5044244;28;24414;-54
2022/02/06 02:45:22;;;;;;;5.15;2.75;;;;;;;;;;5048262;28;24976;-54
2022/02/06 02:47:50;;;;;;;5.05;2.78;;;;;;;;;;5041094;28;24419;-54
2022/02/06 02:50:20;;;;;;;4.70;2.63;;;;;;;;;;5032628;28;25526;-55
2022/02/06 03:00:53;;;;;;;3.25;2.45;;;;;;;;;;5042101;28;25036;-54
2022/02/06 03:05:49;;;;;;;3.60;2.40;;;;;;;;;;5047143;28;24426;-54
2022/02/06 03:08:15;;;;;;;4.35;2.50;;;;;;;;;;5035897;28;24590;-54
2022/02/06 03:10:40;;;;;;;3.30;2.90;;;;;;;;;;5039752;28;24578;-55
2022/02/06 03:13:09;;;;;;;4.30;2.50;;;;;;;;;;5046069;28;24411;-54
2022/02/06 03:16:02;;;;;;;4.45;2.53;;;;;;;;;;5032827;28;24427;-55
2022/02/06 03:18:31;;;;;;;3.55;2.20;;;;;;;;;;5031880;28;24423;-54
2022/02/06 03:21:00;;;;;;;3.58;2.40;;;;;;;;;;5046888;28;24794;-54
2022/02/06 03:23:25;;;;;;;4.45;2.42;;;;;;;;;;5042972;28;24972;-54
2022/02/06 03:28:15;;;;;;;3.47;2.30;;;;;;;;;;5034895;28;24416;-55
2022/02/06 03:30:40;;;;;;;4.20;2.70;;;;;;;;;;5035969;28;24898;-54
2022/02/06 03:33:05;;;;;;;2.70;2.40;;;;;;;;;;5045842;28;24404;-54
2022/02/06 03:35:31;;;;;;;3.63;2.60;;;;;;;;;;5045958;28;24426;-54
2022/02/06 03:37:56;;;;;;;4.93;2.30;;;;;;;;;;5044552;28;24517;-54
2022/02/06 03:40:25;;;;;;;3.73;2.30;;;;;;;;;;5047142;28;24427;-54
2022/02/06 03:43:32;;;;;;;3.50;2.17;;;;;;;;;;5029639;28;24513;-54
2022/02/06 03:45:46;;;;;;;3.67;2.20;;;;;;;;;;5031499;28;24423;-54
2022/02/06 03:48:22;;;;;;;3.25;2.40;;;;;;;;;;5032646;28;24419;-54
2022/02/06 03:50:51;;;;;;;3.90;2.40;;;;;;;;;;5043542;28;24415;-54
2022/02/06 03:53:19;;;;;;;3.92;2.50;;;;;;;;;;5040388;28;24486;-54
2022/02/06 03:55:45;;;;;;;2.75;2.15;;;;;;;;;;5038885;28;24534;-54
2022/02/06 03:58:10;;;;;;;3.80;2.45;;;;;;;;;;5032146;28;24451;-54
2022/02/06 04:00:35;;;;;;;3.80;2.40;;;;;;;;;;5033077;28;24466;-54
2022/02/06 04:03:02;;;;;;;4.00;2.20;;;;;;;;;;5037107;28;24416;-54
2022/02/06 04:05:27;;;;;;;3.73;2.10;;;;;;;;;;5027519;28;24628;-54
2022/02/06 04:07:52;;;;;;;2.90;2.20;;;;;;;;;;5029938;28;24970;-54
2022/02/06 04:10:19;;;;;;;3.83;2.50;;;;;;;;;;5034185;28;24965;-54
2022/02/06 04:12:46;;;;;;;5.10;2.30;;;;;;;;;;5034102;28;24517;-54
2022/02/06 04:15:22;;;;;;;4.75;2.15;;;;;;;;;;5030001;28;24427;-54
2022/02/06 04:17:52;;;;;;;4.88;2.33;;;;;;;;;;5035010;28;24506;-54
2022/02/06 04:20:17;;;;;;;2.80;2.20;;;;;;;;;;5033760;28;24422;-54
2022/02/06 04:22:42;;;;;;;3.43;2.00;;;;;;;;;;5037626;28;24466;-54
2022/02/06 04:25:07;;;;;;;3.80;2.10;;;;;;;;;;5048630;28;24973;-53
2022/02/06 04:27:32;;;;;;;3.43;2.00;;;;;;;;;;5039142;28;24861;-54
2022/02/06 04:29:58;;;;;;;5.80;2.33;;;;;;;;;;5035344;28;24495;-55
2022/02/06 04:32:23;;;;;;;4.33;2.10;;;;;;;;;;5038639;28;25815;-55
2022/02/06 04:34:51;;;;;;;2.45;2.10;;;;;;;;;;5027828;28;24412;-55
2022/02/06 04:37:36;;;;;;;2.47;2.00;;;;;;;;;;5027731;28;24412;-54
2022/02/06 04:40:15;;;;;;;4.43;2.10;;;;;;;;;;5043818;28;24431;-54
2022/02/06 04:43:12;;;;;;;3.40;2.17;;;;;;;;;;5029103;28;24447;-54
2022/02/06 04:48:50;;;;;;;2.38;1.92;;;;;;;;;;5029658;28;25022;-54
2022/02/06 04:54:30;;;;;;;2.45;1.85;;;;;;;;;;5030697;28;24836;-54
2022/02/06 05:19:10;;;;;;;2.60;1.90;;;;;;;;;;5030874;28;24407;-55
2022/02/06 05:29:37;;;;;;;3.80;2.00;;;;;;;;;;5036705;28;24399;-54
2022/02/06 05:32:24;;;;;;;3.03;1.50;;;;;;;;;;5037313;28;24774;-54
2022/02/06 05:34:49;;;;;;;2.55;1.88;;;;;;;;;;5038166;28;24484;-53
2022/02/06 05:37:14;;;;;;;2.27;1.90;;;;;;;;;;5034789;28;24964;-55
2022/02/06 05:39:40;;;;;;;2.20;1.50;;;;;;;;;;5033943;28;24930;-54
2022/02/06 05:42:05;;;;;;;2.53;1.60;;;;;;;;;;5034761;28;25003;-54
2022/02/06 05:44:30;;;;;;;2.17;1.60;;;;;;;;;;5028356;28;25007;-54
2022/02/06 05:46:55;;;;;;;2.88;1.80;;;;;;;;;;5030003;28;24539;-54
2022/02/06 05:49:20;;;;;;;2.57;1.53;;;;;;;;;;5040174;28;24411;-54
2022/02/06 05:51:47;;;;;;;3.20;1.80;;;;;;;;;;5035306;28;25006;-54
2022/02/06 05:54:13;;;;;;;1.55;1.40;;;;;;;;;;5038092;28;24424;-55
2022/02/06 05:56:38;;;;;;;2.97;1.73;;;;;;;;;;5045254;28;24438;-55
2022/02/06 05:59:03;;;;;;;2.30;1.63;;;;;;;;;;5045718;28;24517;-55
2022/02/06 06:01:29;;;;;;;4.10;1.70;;;;;;;;;;5039612;28;24440;-54
2022/02/06 06:03:54;;;;;;;1.73;1.40;;;;;;;;;;5034143;28;24990;-55
2022/02/06 06:06:19;;;;;;;2.00;1.50;;;;;;;;;;5038947;28;24426;-55
2022/02/06 06:08:44;;;;;;;1.57;1.40;;;;;;;;;;5036216;28;24411;-55
2022/02/06 06:11:09;;;;;;;2.57;1.30;;;;;;;;;;5045035;28;24469;-54
2022/02/06 06:13:35;;;;;;;1.30;1.20;;;;;;;;;;5036653;28;24423;-54
2022/02/06 06:16:00;;;;;;;1.30;1.20;;;;;;;;;;5037995;28;24442;-54
2022/02/06 06:18:25;;;;;;;1.77;1.10;;;;;;;;;;5030906;28;24806;-54
2022/02/06 06:20:52;;;;;;;1.73;1.50;;;;;;;;;;5033007;28;24412;-54
2022/02/06 06:23:17;;;;;;;1.45;1.35;;;;;;;;;;5045238;28;24550;-54
2022/02/06 06:25:44;;;;;;;2.13;1.20;;;;;;;;;;5033664;28;24511;-54
2022/02/06 06:28:10;;;;;;;1.92;0.93;;;;;;;;;;5041441;28;25023;-54
2022/02/06 06:30:35;;;;;;;1.67;1.17;;;;;;;;;;5045930;28;24577;-55
2022/02/06 06:33:01;;;;;;;1.58;1.10;;;;;;;;;;5037958;28;24415;-55
2022/02/06 06:35:26;;;;;;;1.45;1.00;;;;;;;;;;5037458;28;24426;-55
2022/02/06 06:37:52;;;;;;;2.25;1.10;;;;;;;;;;5038839;28;24794;-55
2022/02/06 06:40:17;;;;;;;1.15;1.00;;;;;;;;;;5033812;28;24492;-55
2022/02/06 06:42:43;;;;;;;0.90;0.80;;;;;;;;;;5038557;28;24419;-54
2022/02/06 06:45:09;;;;;;;1.50;1.10;;;;;;;;;;5032716;28;24416;-54
2022/02/06 06:47:34;;;;;;;1.75;1.00;;;;;;;;;;5036382;28;24412;-53
2022/02/06 06:50:01;;;;;;;1.27;1.10;;;;;;;;;;5033603;28;24778;-55
2022/02/06 06:52:28;;;;;;;2.00;1.10;;;;;;;;;;5033718;28;24408;-55
2022/02/06 06:55:00;;;;;;;2.20;0.87;;;;;;;;;;5035003;28;24427;-55
2022/02/06 06:57:31;;;;;;;2.22;1.02;;;;;;;;;;5039099;28;24411;-55
2022/02/06 07:04:47;;;;;;;1.33;1.00;;;;;;;;;;5032245;28;24539;-55
2022/02/06 07:07:12;;;;;;;2.20;1.30;;;;;;;;;;5035777;28;24420;-54
2022/02/06 07:09:37;;;;;;;1.90;1.10;;;;;;;;;;5042948;28;24415;-54
2022/02/06 07:12:03;;;;;;;1.40;1.00;;;;;;;;;;5045084;28;24538;-55
2022/02/06 07:14:28;;;;;;;1.30;0.90;;;;;;;;;;5029577;28;24961;-55
2022/02/06 07:16:53;;;;;;;1.37;1.23;;;;;;;;;;5041553;28;24422;-55
2022/02/06 07:19:19;;;;;;;1.90;1.20;;;;;;;;;;5037008;28;24506;-54
2022/02/06 07:21:44;;;;;;;1.20;1.10;;;;;;;;;;5035076;28;24455;-54
2022/02/06 07:24:09;;;;;;;2.40;1.40;;;;;;;;;;5041277;28;24481;-54
2022/02/06 07:26:34;;;;;;;2.80;1.70;;;;;;;;;;5036871;28;24515;-54
2022/02/06 07:29:01;;;;;;;2.10;1.50;;;;;;;;;;5045581;28;24414;-53
2022/02/06 07:31:27;;;;;;;2.03;1.30;;;;;;;;;;5035103;28;24530;-53
2022/02/06 07:33:53;;;;;;;1.53;1.40;;;;;;;;;;5032961;28;25064;-53
2022/02/06 07:36:19;;;;;;;2.08;1.60;;;;;;;;;;5036319;28;24435;-54
2022/02/06 07:38:44;;;;;;;2.03;1.60;;;;;;;;;;5027949;28;24513;-53
2022/02/06 07:41:09;;;;;;;2.50;1.40;;;;;;;;;;5031660;28;24566;-54
2022/02/06 07:43:35;;;;;;;1.70;1.60;;;;;;;;;;5038882;28;24428;-53
2022/02/06 07:46:01;;;;;;;1.42;1.20;;;;;;;;;;5033927;28;24416;-54
2022/02/06 07:48:26;;;;;;;2.50;1.35;;;;;;;;;;5035346;28;24424;-54
2022/02/06 07:50:51;;;;;;;2.07;1.23;;;;;;;;;;5029783;28;24562;-54
2022/02/06 07:53:18;;;;;;;2.03;1.10;;;;;;;;;;5038272;28;24488;-54
2022/02/06 07:55:43;;;;;;;1.83;1.50;;;;;;;;;;5032352;28;24518;-54
2022/02/06 07:58:08;;;;;;;1.50;1.30;;;;;;;;;;5035829;28;24995;-54
2022/02/06 08:00:33;;;;;;;1.58;1.40;;;;;;;;;;5036726;28;24480;-54
2022/02/06 08:02:59;;;;;;;3.30;1.50;;;;;;;;;;5038217;28;24443;-54
2022/02/06 08:05:25;;;;;;;2.30;1.40;;;;;;;;;;5036636;28;24821;-54
2022/02/06 08:07:51;;;;;;;3.03;1.73;;;;;;;;;;5035355;28;24407;-54
2022/02/06 08:10:16;;;;;;;2.40;1.47;;;;;;;;;;5036536;28;24426;-55
2022/02/06 08:12:51;;;;;;;2.23;1.40;;;;;;;;;;5031735;28;24849;-55
2022/02/06 08:15:17;;;;;;;1.55;1.45;;;;;;;;;;5031805;28;24418;-54
2022/02/06 08:17:45;;;;;;;1.65;1.40;;;;;;;;;;5034341;28;24447;-55
2022/02/06 08:20:14;;;;;;;1.60;1.50;;;;;;;;;;5029795;28;24415;-55
2022/02/06 08:22:43;;;;;;;2.00;1.38;;;;;;;;;;5026088;28;24477;-55
2022/02/06 08:25:10;;;;;;;1.50;1.40;;;;;;;;;;5030850;28;25027;-54
2022/02/06 08:27:35;;;;;;;2.72;1.30;;;;;;;;;;5035815;28;24438;-56
2022/02/06 08:30:00;;;;;;;1.50;1.30;;;;;;;;;;5047640;28;24384;-55
2022/02/06 08:32:28;;;;;;;2.13;1.30;;;;;;;;;;5042447;28;24430;-55
2022/02/06 08:34:54;;;;;;;1.30;1.10;;;;;;;;;;5045689;28;25017;-55
2022/02/06 08:37:19;;;;;;;2.95;1.40;;;;;;;;;;5047717;28;24514;-55
2022/02/06 08:39:45;;;;;;;2.40;1.13;;;;;;;;;;5046637;28;24470;-55
2022/02/06 08:42:11;;;;;;;1.58;1.30;;;;;;;;;;5047685;28;24403;-55
2022/02/06 08:44:37;;;;;;;1.60;1.20;;;;;;;;;;5036836;28;24513;-55
2022/02/06 08:47:04;;;;;;;2.22;1.30;;;;;;;;;;5027731;28;24391;-55
2022/02/06 08:49:29;;;;;;;1.27;1.00;;;;;;;;;;5045844;28;24471;-54
2022/02/06 08:51:54;;;;;;;3.23;1.40;;;;;;;;;;5047689;28;24384;-54
2022/02/06 08:54:27;;;;;;;3.17;1.40;;;;;;;;;;5045715;28;25172;-54
2022/02/06 08:56:52;;;;;;;2.72;1.33;;;;;;;;;;5047337;28;24427;-54
2022/02/06 08:59:17;;;;;;;1.80;1.30;;;;;;;;;;5047619;28;24434;-55
2022/02/06 09:01:43;;;;;;;1.47;1.37;;;;;;;;;;5046803;28;24418;-54
2022/02/06 09:04:08;;;;;;;1.00;1.00;;;;;;;;;;5047150;28;24422;-55
2022/02/06 09:06:36;;;;;;;1.30;1.10;;;;;;;;;;5045356;28;24411;-55
2022/02/06 09:09:02;;;;;;;2.20;1.20;;;;;;;;;;5046330;28;24576;-55
2022/02/06 09:11:31;;;;;;;1.60;1.10;;;;;;;;;;5047253;28;24487;-55
2022/02/06 09:13:57;;;;;;;1.60;1.10;;;;;;;;;;5047085;28;24464;-55
2022/02/06 09:16:23;;;;;;;1.70;1.30;;;;;;;;;;5038203;28;25221;-55
2022/02/06 09:18:48;;;;;;;2.17;1.37;;;;;;;;;;5044211;28;24415;-54
2022/02/06 09:21:13;;;;;;;1.40;1.30;;;;;;;;;;5046845;28;24400;-55
2022/02/06 09:23:38;;;;;;;1.90;1.20;;;;;;;;;;5046967;28;24857;-55
2022/02/06 09:26:03;;;;;;;1.70;1.15;;;;;;;;;;5046560;28;24520;-54
2022/02/06 09:28:28;;;;;;;1.50;1.10;;;;;;;;;;5034904;28;24424;-55
2022/02/06 09:30:54;;;;;;;1.80;1.30;;;;;;;;;;5024879;28;24716;-55
2022/02/06 09:35:44;;;;;;;1.35;1.20;;;;;;;;;;5025734;28;24493;-54
2022/02/06 09:38:09;;;;;;;1.80;1.37;;;;;;;;;;5039537;28;24465;-55
2022/02/06 09:40:38;;;;;;;1.40;1.20;;;;;;;;;;5047127;28;25413;-55
2022/02/06 09:43:03;;;;;;;1.30;1.10;;;;;;;;;;5045716;28;24489;-54
2022/02/06 09:45:29;;;;;;;1.60;1.20;;;;;;;;;;5032343;28;24416;-55
2022/02/06 09:47:54;;;;;;;2.20;1.03;;;;;;;;;;5027185;28;24423;-55
2022/02/06 09:50:20;;;;;;;1.83;1.30;;;;;;;;;;5027027;28;24427;-54
2022/02/06 09:52:45;;;;;;;1.30;1.00;;;;;;;;;;5026576;28;24431;-54
2022/02/06 09:55:16;;;;;;;1.60;1.20;;;;;;;;;;5026988;28;24460;-55
2022/02/06 09:57:53;;;;;;;1.50;1.10;;;;;;;;;;5026837;28;24419;-55
2022/02/06 10:00:19;;;;;;;1.70;1.40;;;;;;;;;;5026641;28;24399;-55
2022/02/06 10:02:47;;;;;;;1.45;1.02;;;;;;;;;;5026677;28;24566;-55
2022/02/06 10:05:13;;;;;;;2.50;1.30;;;;;;;;;;5026636;28;24462;-54
2022/02/06 10:07:48;;;;;;;1.80;1.00;;;;;;;;;;5035250;28;24451;-55
2022/02/06 10:10:14;;;;;;;2.88;1.10;;;;;;;;;;5046568;28;24383;-55
2022/02/06 10:12:40;;;;;;;1.63;1.03;;;;;;;;;;5041529;28;24468;-54
2022/02/06 10:15:06;;;;;;;1.50;1.20;;;;;;;;;;5026648;28;24411;-55
2022/02/06 10:17:33;;;;;;;1.00;1.00;;;;;;;;;;5027330;28;24427;-55
2022/02/06 10:19:59;;;;;;;1.40;0.90;;;;;;;;;;5026657;28;24397;-55
2022/02/06 10:22:41;;;;;;;1.50;1.00;;;;;;;;;;5026687;28;24399;-55
2022/02/06 10:25:08;;;;;;;1.60;0.90;;;;;;;;;;5026711;28;24483;-55
2022/02/06 10:27:45;;;;;;;1.60;1.00;;;;;;;;;;5025955;28;24416;-55
2022/02/06 10:30:19;;;;;;;1.30;1.00;;;;;;;;;;5026630;28;24419;-55
2022/02/06 10:32:45;;;;;;;1.40;1.00;;;;;;;;;;5026395;28;24491;-55
2022/02/06 10:35:10;;;;;;;0.97;0.87;;;;;;;;;;5026225;28;25045;-56
2022/02/06 10:37:35;;;;;;;1.10;1.00;;;;;;;;;;5029214;28;24510;-54
2022/02/06 10:40:05;;;;;;;1.00;0.90;;;;;;;;;;5029747;28;24504;-55
2022/02/06 10:42:31;;;;;;;1.20;1.00;;;;;;;;;;5029793;28;24961;-55
2022/02/06 10:45:13;;;;;;;1.33;1.00;;;;;;;;;;5029639;28;24517;-55
2022/02/06 10:47:39;;;;;;;0.80;0.80;;;;;;;;;;5029590;28;24427;-56
2022/02/06 10:50:06;;;;;;;1.10;0.80;;;;;;;;;;5048814;28;24435;-56
2022/02/06 10:52:31;;;;;;;1.00;0.85;;;;;;;;;;5047904;28;24411;-56
2022/02/06 10:54:56;;;;;;;1.23;1.10;;;;;;;;;;5049713;28;24465;-55
2022/02/06 10:57:23;;;;;;;1.67;1.00;;;;;;;;;;5049755;28;24399;-56
2022/02/06 10:59:50;;;;;;;1.20;0.80;;;;;;;;;;5049456;28;25220;-56
2022/02/06 11:02:29;;;;;;;1.25;1.00;;;;;;;;;;5032535;28;25005;-55
2022/02/06 11:04:58;;;;;;;1.10;0.90;;;;;;;;;;5029031;28;24454;-56
2022/02/06 11:07:24;;;;;;;1.10;0.90;;;;;;;;;;5041795;28;24404;-54
2022/02/06 11:09:49;;;;;;;1.50;0.90;;;;;;;;;;5048530;28;24902;-55
2022/02/06 11:12:19;;;;;;;1.60;1.20;;;;;;;;;;5048024;28;24529;-56
2022/02/06 11:14:49;;;;;;;1.40;0.80;;;;;;;;;;5049082;28;24438;-56
2022/02/06 11:17:19;;;;;;;1.10;0.90;;;;;;;;;;5049175;28;24415;-55
2022/02/06 11:20:01;;;;;;;1.50;0.80;;;;;;;;;;5034163;28;24416;-55
2022/02/06 11:22:27;;;;;;;1.10;1.00;;;;;;;;;;5030674;28;24427;-55
2022/02/06 11:24:52;;;;;;;2.50;1.30;;;;;;;;;;5036832;28;25055;-56
2022/02/06 11:27:18;;;;;;;1.00;0.80;;;;;;;;;;5028414;28;24703;-55
2022/02/06 11:29:45;;;;;;;1.40;0.90;;;;;;;;;;5036624;28;24511;-56
2022/02/06 11:32:11;;;;;;;1.05;0.93;;;;;;;;;;5038390;28;24422;-56
2022/02/06 11:34:41;;;;;;;0.93;0.80;;;;;;;;;;5031410;28;24426;-56
2022/02/06 11:45:59;;;;;;;1.25;0.90;;;;;;;;;;5033148;28;24477;-54
2022/02/06 11:48:29;;;;;;;1.10;1.00;;;;;;;;;;5035979;28;24933;-55
2022/02/06 11:50:55;;;;;;;1.02;0.90;;;;;;;;;;5036009;28;24874;-55
2022/02/06 11:53:33;;;;;;;1.50;0.70;;;;;;;;;;5027624;28;24415;-56
2022/02/06 11:55:58;;;;;;;1.10;0.80;;;;;;;;;;5034868;28;24957;-54
2022/02/06 11:58:27;;;;;;;1.30;0.90;;;;;;;;;;5038406;28;24431;-55
2022/02/06 12:01:07;;;;;;;1.40;0.70;;;;;;;;;;5039627;28;24423;-56
2022/02/06 12:03:52;;;;;;;1.00;0.90;;;;;;;;;;5028424;28;24427;-57
2022/02/06 12:06:21;;;;;;;1.52;0.82;;;;;;;;;;5040170;28;24511;-57
2022/02/06 12:08:58;;;;;;;2.00;1.00;;;;;;;;;;5029244;28;24435;-56
2022/02/06 12:11:27;;;;;;;0.90;0.90;;;;;;;;;;5030409;28;24420;-55
2022/02/06 12:14:12;;;;;;;2.20;1.00;;;;;;;;;;5041111;28;24446;-55
2022/02/06 12:16:50;;;;;;;1.70;1.10;;;;;;;;;;5028928;28;24427;-54
2022/02/06 12:19:28;;;;;;;1.10;1.00;;;;;;;;;;5029637;28;24422;-55
2022/02/06 12:21:54;;;;;;;1.20;0.90;;;;;;;;;;5039686;28;24507;-56
2022/02/06 12:24:37;;;;;;;0.70;0.70;;;;;;;;;;5028218;28;24428;-55
2022/02/06 12:27:21;;;;;;;1.25;0.70;;;;;;;;;;5034108;28;24799;-55
2022/02/06 12:29:50;;;;;;;1.13;0.75;;;;;;;;;;5034377;28;24412;-55
2022/02/06 12:32:29;;;;;;;0.90;0.77;;;;;;;;;;5030236;28;24415;-55
2022/02/06 12:37:39;;;;;;;1.00;0.70;;;;;;;;;;5034196;28;24458;-55
2022/02/06 12:40:06;;;;;;;2.00;0.70;;;;;;;;;;5038614;28;24464;-55
2022/02/06 12:42:39;;;;;;;0.80;0.80;;;;;;;;;;5039045;28;24423;-54
2022/02/06 12:45:06;;;;;;;0.70;0.70;;;;;;;;;;5044491;28;24510;-55
2022/02/06 12:47:37;;;;;;;0.80;0.80;;;;;;;;;;5032859;28;24455;-55
2022/02/06 12:50:11;;;;;;;0.80;0.80;;;;;;;;;;5033728;28;24432;-55
2022/02/06 12:52:36;;;;;;;1.20;0.80;;;;;;;;;;5037006;28;24432;-55
2022/02/06 12:55:02;;;;;;;0.90;0.90;;;;;;;;;;5040104;28;24431;-54
2022/02/06 12:57:27;;;;;;;1.43;0.90;;;;;;;;;;5029659;28;24462;-54
2022/02/06 12:59:53;;;;;;;1.00;1.00;;;;;;;;;;5036786;28;24416;-53
2022/02/06 13:02:22;;;;;;;1.20;0.70;;;;;;;;;;5030234;28;24480;-54
2022/02/06 13:05:01;;;;;;;1.10;1.00;;;;;;;;;;5037212;28;24435;-53
2022/02/06 13:07:30;;;;;;;0.90;0.70;;;;;;;;;;5035088;28;24897;-55
2022/02/06 13:10:02;;;;;;;1.20;0.70;;;;;;;;;;5031828;28;24431;-54
2022/02/06 13:12:33;;;;;;;1.00;0.90;;;;;;;;;;5028589;28;24411;-54
2022/02/06 13:15:23;;;;;;;0.90;0.80;;;;;;;;;;5024448;28;24434;-55
2022/02/06 13:20:35;;;;;;;2.92;0.65;;;;;;;;;;5033036;28;24510;-56
2022/02/06 13:25:57;;;;;;;0.80;0.68;;;;;;;;;;5028323;28;24422;-55
2022/02/06 13:36:24;;;;;;;0.90;0.80;;;;;;;;;;5039632;28;24477;-55
2022/02/06 13:38:54;;;;;;;1.00;1.00;;;;;;;;;;5036003;28;24820;-55
2022/02/06 13:41:24;;;;;;;0.70;0.60;;;;;;;;;;5026562;28;24993;-55
2022/02/06 13:43:51;;;;;;;0.63;0.63;;;;;;;;;;5027334;28;24462;-55
2022/02/06 13:46:18;;;;;;;1.00;0.60;;;;;;;;;;5031736;28;24415;-55
2022/02/06 13:48:47;;;;;;;0.52;0.52;;;;;;;;;;5039716;28;24510;-55
2022/02/06 13:51:12;;;;;;;0.70;0.60;;;;;;;;;;5035836;28;24989;-55
2022/02/06 13:53:38;;;;;;;0.80;0.60;;;;;;;;;;5039257;28;24443;-55
2022/02/06 13:56:06;;;;;;;0.50;0.50;;;;;;;;;;5037398;28;26210;-55
2022/02/06 13:58:32;;;;;;;0.50;0.40;;;;;;;;;;5034784;28;24858;-55
2022/02/06 14:01:00;;;;;;;0.90;0.90;;;;;;;;;;5028016;28;25196;-55
2022/02/06 14:03:41;;;;;;;0.60;0.60;;;;;;;;;;5035193;28;24873;-56
2022/02/06 14:06:07;;;;;;;0.60;0.60;;;;;;;;;;5037611;28;24420;-55
2022/02/06 14:08:34;;;;;;;0.60;0.60;;;;;;;;;;5036352;28;24429;-55
2022/02/06 14:11:08;;;;;;;1.00;0.50;;;;;;;;;;5035400;28;24775;-56
2022/02/06 14:13:34;;;;;;;0.60;0.47;;;;;;;;;;5028533;28;24419;-55
2022/02/06 14:16:03;;;;;;;0.60;0.60;;;;;;;;;;5035111;28;24416;-55
2022/02/06 14:18:28;;;;;;;0.60;0.50;;;;;;;;;;5029814;28;24418;-55
2022/02/06 14:20:57;;;;;;;0.60;0.60;;;;;;;;;;5033905;28;24864;-54
2022/02/06 14:23:22;;;;;;;0.50;0.50;;;;;;;;;;5038511;28;24430;-54
2022/02/06 14:25:48;;;;;;;0.50;0.50;;;;;;;;;;5047839;28;24917;-53
2022/02/06 14:28:21;;;;;;;2.75;0.50;;;;;;;;;;5050184;28;24391;-55
2022/02/06 14:30:46;;;;;;;0.60;0.60;;;;;;;;;;5049385;28;24388;-55
2022/02/06 14:33:12;;;;;;;0.80;0.60;;;;;;;;;;5043624;28;24443;-55
2022/02/06 14:35:40;;;;;;;0.60;0.60;;;;;;;;;;5027393;28;24424;-55
2022/02/06 14:38:08;;;;;;;0.70;0.60;;;;;;;;;;5035730;28;25065;-54
2022/02/06 14:40:54;;;;;;;0.50;0.50;;;;;;;;;;5037103;28;24430;-56
2022/02/06 14:43:32;;;;;;;1.10;0.52;;;;;;;;;;5036955;28;24529;-55
2022/02/06 14:45:57;;;;;;;0.93;0.82;;;;;;;;;;5044742;28;24528;-54
2022/02/06 14:48:24;;;;;;;1.10;1.00;;;;;;;;;;5038591;28;24649;-54
2022/02/06 14:50:50;;;;;;;1.90;0.80;;;;;;;;;;5041146;28;24412;-53
2022/02/06 14:53:16;;;;;;;0.80;0.80;;;;;;;;;;5029705;28;24482;-53
2022/02/06 14:55:42;;;;;;;0.60;0.60;;;;;;;;;;5029585;28;24695;-54
2022/02/06 14:58:08;;;;;;;1.10;0.52;;;;;;;;;;5033937;28;24511;-55
2022/02/06 15:00:33;;;;;;;0.60;0.60;;;;;;;;;;5040484;28;24515;-55
2022/02/06 15:02:58;;;;;;;0.53;0.50;;;;;;;;;;5048204;28;24410;-55
2022/02/06 15:05:24;;;;;;;0.50;0.40;;;;;;;;;;5047635;28;24889;-54
2022/02/06 15:07:49;;;;;;;0.70;0.50;;;;;;;;;;5048662;28;24416;-55
2022/02/06 15:10:14;;;;;;;0.40;0.40;;;;;;;;;;5035924;28;24416;-54
2022/02/06 15:12:39;;;;;;;0.70;0.60;;;;;;;;;;5039933;28;24442;-55
2022/02/06 15:15:05;;;;;;;0.83;0.73;;;;;;;;;;5030939;28;24458;-56
2022/02/06 15:17:32;;;;;;;3.47;2.20;;;;;;;;;;5044441;28;24981;-56
2022/02/06 15:19:58;;;;;;;0.63;0.60;;;;;;;;;;5040546;28;24844;-56
2022/02/06 15:22:23;;;;;;;1.30;0.90;;;;;;;;;;5039421;28;25033;-55
2022/02/06 15:24:48;;;;;;;0.40;0.40;;;;;;;;;;5039955;28;24431;-55
2022/02/06 15:27:13;;;;;;;0.75;0.50;;;;;;;;;;5032816;28;24558;-55
2022/02/06 15:29:38;;;;;;;0.50;0.50;;;;;;;;;;5041082;28;24415;-54
2022/02/06 15:32:04;;;;;;;0.50;0.50;;;;;;;;;;5039412;28;24412;-55
2022/02/06 15:34:30;;;;;;;0.50;0.40;;;;;;;;;;5039888;28;24411;-55
2022/02/06 15:37:00;;;;;;;0.70;0.40;;;;;;;;;;5037298;28;24482;-56
2022/02/06 15:39:36;;;;;;;0.70;0.60;;;;;;;;;;5035921;28;24493;-55
2022/02/06 15:42:07;;;;;;;1.85;1.73;;;;;;;;;;5037182;28;24953;-55
2022/02/06 15:44:33;;;;;;;0.57;0.50;;;;;;;;;;5037339;28;24524;-53
2022/02/06 15:46:58;;;;;;;1.20;0.80;;;;;;;;;;5036848;28;24781;-54
2022/02/06 15:49:23;;;;;;;0.70;0.70;;;;;;;;;;5035413;28;25193;-54
2022/02/06 15:51:48;;;;;;;0.70;0.70;;;;;;;;;;5033831;28;24404;-54
2022/02/06 15:54:13;;;;;;;0.50;0.40;;;;;;;;;;5032589;28;24424;-54
2022/02/06 15:56:38;;;;;;;0.60;0.60;;;;;;;;;;5041371;28;25052;-55
2022/02/06 15:59:04;;;;;;;0.40;0.40;;;;;;;;;;5040981;28;24458;-55
2022/02/06 16:01:29;;;;;;;0.70;0.60;;;;;;;;;;5039229;28;24463;-55
2022/02/06 16:03:54;;;;;;;0.60;0.40;;;;;;;;;;5034631;28;24454;-55
2022/02/06 16:06:19;;;;;;;0.40;0.40;;;;;;;;;;5037250;28;24506;-54
2022/02/06 16:08:45;;;;;;;0.40;0.40;;;;;;;;;;5035208;28;24416;-55
2022/02/06 16:11:10;;;;;;;0.60;0.50;;;;;;;;;;5041377;28;24408;-54
2022/02/06 16:13:35;;;;;;;0.60;0.50;;;;;;;;;;5037394;28;24458;-54
2022/02/06 16:16:00;;;;;;;0.60;0.50;;;;;;;;;;5038119;28;24574;-55
2022/02/06 16:18:26;;;;;;;0.50;0.40;;;;;;;;;;5036167;28;24464;-55
2022/02/06 16:20:52;;;;;;;0.50;0.50;;;;;;;;;;5034641;28;24855;-55
2022/02/06 16:23:17;;;;;;;0.60;0.50;;;;;;;;;;5038082;28;24507;-55
2022/02/06 16:25:43;;;;;;;0.50;0.50;;;;;;;;;;5028748;28;24804;-55
2022/02/06 16:28:08;;;;;;;0.50;0.47;;;;;;;;;;5037175;28;24502;-55
2022/02/06 16:30:33;;;;;;;1.10;0.60;;;;;;;;;;5024463;28;24469;-56
2022/02/06 16:32:58;;;;;;;0.60;0.60;;;;;;;;;;5043075;28;24418;-55
2022/02/06 16:35:23;;;;;;;0.80;0.50;;;;;;;;;;5057043;28;24441;-55
2022/02/06 16:37:49;;;;;;;0.50;0.50;;;;;;;;;;5018673;28;24498;-55
2022/02/06 16:40:14;;;;;;;0.50;0.40;;;;;;;;;;5033607;28;24443;-56
2022/02/06 16:42:42;;;;;;;0.50;0.50;;;;;;;;;;5030294;28;26407;-55
2022/02/06 16:45:08;;;;;;;0.60;0.60;;;;;;;;;;5033543;28;24427;-55
2022/02/06 16:47:33;;;;;;;0.50;0.50;;;;;;;;;;5028729;28;24817;-55
2022/02/06 16:49:58;;;;;;;0.50;0.50;;;;;;;;;;5027701;28;25036;-54
2022/02/06 16:52:23;;;;;;;0.60;0.60;;;;;;;;;;5031552;28;24411;-55
2022/02/06 16:54:48;;;;;;;0.50;0.50;;;;;;;;;;5031948;28;24587;-55
2022/02/06 16:57:13;;;;;;;0.70;0.70;;;;;;;;;;5035191;28;25180;-55
2022/02/06 16:59:38;;;;;;;1.50;0.65;;;;;;;;;;5033716;28;24454;-54